Spot Road, Arizona (BMGR) Weather observations

Data are for 10 minute period ending at time listed.
 Day   Time   Solar   Ave.   Ave.  Ave.  Vector  Max.   Total    
  of    of     Rad.   Air    Rel.  Wind   Wind   Wind  Precip.   
Year   Day            Temp.  Hum.  Speed  Dir.   Gust            
2026   (MST)  Kw/m2    F      %     mph   deg.    mph    in.     
-----------------------------------------------------------------
 128   12:35   0.90   95.7    15    8.6   191    14.4    0.00 
 128   12:40   0.90   95.5    15    8.3   226    13.8    0.00 
 128   12:45   0.90   94.8    15    4.4   240    10.5    0.00 
 128   12:50   0.90   95.9    15    7.9   243    15.5    0.00 
 128   12:55   0.90   95.8    14   10.3   225    16.0    0.00 
 128   13:00   0.90   96.4    14   10.0   207    16.6    0.00 
 128   13:05   0.89   96.2    14   10.6   201    20.0    0.00 
 128   13:10   0.89   96.2    14    6.9   220    14.4    0.00 
 128   13:15   0.89   97.2    14   12.7   206    19.4    0.00 
 128   13:20   0.89   97.2    13   10.2   228    17.2    0.00 
 128   13:25   0.88   97.2    13   10.0   210    14.9    0.00 
 128   13:30   0.88   97.9    13   11.6   229    17.2    0.00 
 128   13:35   0.87   97.4    13   10.8   242    18.9    0.00 
 128   13:40   0.87   97.6    13   12.1   187    22.2    0.00 
 128   13:45   0.86   97.7    13    8.2   221    17.7    0.00 
 128   13:50   0.85   98.4    12   12.1   250    17.2    0.00 
 128   13:55   0.84   98.0    12   11.1   241    17.2    0.00 
 128   14:00   0.84   98.5    12   10.9   241    19.4    0.00 
 128   14:05   0.83   99.1    12   13.2   194    17.7    0.00 
 128   14:10   0.82   99.3    12   12.7   196    18.9    0.00 
 128   14:15   0.81   99.4    12   14.9   206    22.2    0.00 
 128   14:20   0.81   99.4    12   12.5   206    18.3    0.00 
 128   14:25   0.80   99.5    11   14.4   259    18.9    0.00 
 128   14:30   0.79   99.4    11   10.4   240    20.0    0.00 
 128   14:35   0.78   99.4    12   15.8   218    22.8    0.00 
 128   14:40   0.78   99.5    12   14.4   223    21.6    0.00 
 128   14:45   0.76   99.2    12   14.6   231    23.3    0.00 
 128   14:50   0.75   99.9    11    9.8   239    23.9    0.00 
 128   14:55   0.74   99.4    11   18.3   225    26.1    0.00 
 128   15:00   0.73   99.6    11   13.5   223    21.1    0.00 
 128   15:05   0.72   99.7    11   10.8   229    21.1    0.00 
 128   15:10   0.71   99.8    11   11.6   224    17.7    0.00 
 128   15:15   0.70   99.7    11   14.3   234    20.0    0.00 
 128   15:20   0.69  100.8    10   14.1   223    25.0    0.00 
 128   15:25   0.68   99.5    11   14.7   212    20.5    0.00 
 128   15:30   0.66   99.5    11   10.0   204    15.5    0.00 
 128   15:35   0.65   99.9    10   10.2   207    17.2    0.00 
 128   15:40   0.64   99.9    10   13.6   224    21.1    0.00 
 128   15:45   0.62  100.1    10   13.8   201    23.3    0.00 
 128   15:50   0.61  100.1    11   12.1   218    23.3    0.00 
 128   15:55   0.59  100.1    11   15.6   214    22.8    0.00 
 128   16:00   0.58  100.0    11   10.5   212    17.7    0.00 
 128   16:05   0.57  100.3    11   17.1   210    27.8    0.00 
 128   16:10   0.55   99.7    11   17.5   232    26.1    0.00 
 128   16:15   0.54   99.4    11    9.7   217    12.7    0.00 
 128   16:20   0.53  100.5    10   12.3   203    17.7    0.00 
 128   16:25   0.51  100.5    10   13.3   215    18.9    0.00 
 128   16:30   0.50  100.3    10   12.6   226    21.6    0.00 
 128   16:35   0.48  100.5    10   11.7   202    21.1    0.00 
 128   16:40   0.46   99.8    10   19.1   227    23.3    0.00 
 128   16:45   0.45   99.6    10   15.5   223    18.3    0.00 
 128   16:50   0.43   99.8    10   13.5   228    21.1    0.00 
 128   16:55   0.42  100.1    10   16.6   228    24.4    0.00 
 128   17:00   0.40   99.8    10   16.8   220    22.8    0.00 
 128   17:05   0.39   99.7    10   15.5   216    22.2    0.00 
 128   17:10   0.37   99.7    10   16.6   208    21.1    0.00 
 128   17:15   0.35   99.8    10   16.6   218    22.8    0.00 
 128   17:20   0.34  100.1    10   15.3   207    23.3    0.00 
 128   17:25   0.32   99.8    10   15.9   223    21.1    0.00 
 128   17:30   0.31   99.6    10   16.0   217    22.2    0.00 
 128   17:35   0.29  100.2    10   15.1   218    23.9    0.00 
 128   17:40   0.27   99.7    10   14.7   211    20.0    0.00 
 128   17:45   0.26   99.7    10   17.6   206    23.3    0.00 
 128   17:50   0.24   99.4    10   19.2   214    26.1    0.00 
 128   17:55   0.22   99.6    10   16.4   218    21.1    0.00 
 128   18:00   0.21   99.3    10   16.5   227    22.2    0.00 
 128   18:05   0.19   99.4    10   17.2   226    21.1    0.00 
 128   18:10   0.18   99.2    10   17.1   221    21.6    0.00 
 128   18:15   0.16   99.2    10   14.9   212    18.9    0.00 
 128   18:20   0.15   99.1    10   14.9   211    19.4    0.00 
 128   18:25   0.13   99.1    10   14.6   214    18.3    0.00 
 128   18:30   0.12   98.9    10   15.2   220    18.3    0.00 
 128   18:35   0.10   98.7    10   16.7   211    22.2    0.00 
 128   18:40   0.09   98.4    10   16.7   203    21.6    0.00 
 128   18:45   0.08   98.5    10   14.1   215    18.9    0.00 
 128   18:50   0.07   98.3    10   15.6   214    20.0    0.00 
 128   18:55   0.06   98.0    10   16.1   214    20.5    0.00 
 128   19:00   0.04   97.8     9   14.1   214    17.2    0.00 
 128   19:05   0.03   97.5     9   13.8   215    16.6    0.00 
 128   19:10   0.02   97.1     9   13.2   212    17.2    0.00 
 128   19:15   0.02   96.7     9   12.5   213    16.0    0.00 
 128   19:20   0.01   96.4     9   12.9   214    16.6    0.00 
 128   19:25   0.00   96.1     9   12.9   214    15.5    0.00 
 128   19:30   0.00   95.6     9   12.3   213    14.9    0.00 
 128   19:35   0.00   95.1    10   11.3   215    13.8    0.00 
 128   19:40   0.00   94.7    10   11.3   214    14.9    0.00 
 128   19:45   0.00   94.4    10   12.4   212    14.4    0.00 
 128   19:50   0.00   94.1    10   12.4   214    14.9    0.00 
 128   19:55   0.00   93.8    10   12.1   212    14.4    0.00 
 128   20:00   0.00   93.4    10   11.0   211    13.8    0.00 
 128   20:05   0.00   93.0    11   11.2   210    13.8    0.00 
 128   20:10   0.00   92.8    11   11.8   212    14.9    0.00 
 128   20:15   0.00   92.5    11   11.6   215    13.8    0.00 
 128   20:20   0.00   92.0    11   11.2   212    13.3    0.00 
 128   20:25   0.00   91.4    11    9.9   210    12.7    0.00 
 128   20:30   0.00   90.9    11   10.4   206    12.7    0.00 
 128   20:35   0.00   90.6    11   11.1   204    12.7    0.00 
 128   20:40   0.00   90.2    12   11.2   204    13.8    0.00 
 128   20:45   0.00   90.5    12   11.5   202    13.3    0.00 
 128   20:50   0.00   90.7    12   11.7   202    13.8    0.00 
 128   20:55   0.00   90.7    12   11.0   199    12.7    0.00 
 128   21:00   0.00   90.9    12   10.8   201    13.8    0.00 
 128   21:05   0.00   89.7    12    8.1   213    11.0    0.00 
 128   21:10   0.00   89.4    12    9.0   208    11.0    0.00 
 128   21:15   0.00   90.1    12   10.5   201    12.1    0.00 
 128   21:20   0.00   90.7    12   10.9   200    13.3    0.00 
 128   21:25   0.00   90.9    12   11.5   200    13.3    0.00 
 128   21:30   0.00   90.8    12   11.9   198    14.4    0.00 
 128   21:35   0.00   90.5    13   12.3   193    14.4    0.00 
 128   21:40   0.00   90.4    14   13.5   192    15.5    0.00 
 128   21:45   0.00   89.9    16   14.0   192    16.6    0.00 
 128   21:50   0.00   89.6    17   14.1   190    16.0    0.00 
 128   21:55   0.00   89.6    17   14.3   190    16.0    0.00 
 128   22:00   0.00   89.4    18   14.3   193    17.7    0.00 
 128   22:05   0.00   89.3    18   14.0   192    16.0    0.00 
 128   22:10   0.00   89.4    18   14.4   189    16.6    0.00 
 128   22:15   0.00   89.3    18   14.5   190    16.6    0.00 
 128   22:20   0.00   89.1    18   14.4   189    18.3    0.00 
 128   22:25   0.00   89.0    19   14.3   188    17.2    0.00 
 128   22:30   0.00   88.7    19   15.1   190    18.9    0.00 
 128   22:35   0.00   88.3    19   14.4   190    17.2    0.00 
 128   22:40   0.00   88.3    19   14.6   189    17.2    0.00 
 128   22:45   0.00   88.2    19   15.9   188    18.9    0.00 
 128   22:50   0.00   88.0    19   14.1   190    16.6    0.00 
 128   22:55   0.00   87.9    19   13.3   187    16.0    0.00 
 128   23:00   0.00   87.5    19   12.7   186    15.5    0.00 
 128   23:05   0.00   87.3    19   11.3   186    14.4    0.00 
 128   23:10   0.00   87.3    19    9.7   186    12.7    0.00 
 128   23:15   0.00   86.9    19    7.5   176     9.3    0.00 
 128   23:20   0.00   86.6    19    5.2   131     7.1    0.00 
 128   23:25   0.00   86.7    19    6.2   125     8.2    0.00 
 128   23:30   0.00   86.5    19    6.3   132     7.7    0.00 
 128   23:35   0.00   86.4    18    5.5   150     7.1    0.00 
 128   23:40   0.00   86.8    18    4.9   191     6.0    0.00 
 128   23:45   0.00   87.0    18    6.5   219     7.7    0.00 
 128   23:50   0.00   86.6    18    8.4   230    10.5    0.00 
 128   23:55   0.00   85.2    18    8.8   241    11.6    0.00 
 129    0:00   0.00   82.1    20   10.8   249    14.4    0.00 
 129    0:05   0.00   81.7    21   11.0   238    14.4    0.00 
 129    0:10   0.00   81.6    21   11.1   230    13.8    0.00 
 129    0:15   0.00   81.7    21   11.3   236    13.8    0.00 
 129    0:20   0.00   81.8    21   10.0   228    12.1    0.00 
 129    0:25   0.00   81.3    21    6.9   205     7.7    0.00 
 129    0:30   0.00   81.1    21    7.7   181     9.3    0.00 
 129    0:35   0.00   81.6    21    9.2   177    10.5    0.00 
 129    0:40   0.00   81.6    21    8.7   179     9.9    0.00 
 129    0:45   0.00   81.9    20    8.4   178     9.3    0.00 
 129    0:50   0.00   82.1    20    8.2   173     9.3    0.00 
 129    0:55   0.00   80.8    20    5.4   134     6.5    0.00 
 129    1:00   0.00   80.4    21    5.6   120     6.5    0.00 
 129    1:05   0.00   80.4    20    5.5   106     6.0    0.00 
 129    1:10   0.00   79.3    20    5.3   100     6.0    0.00 
 129    1:15   0.00   78.5    20    5.7   105     6.5    0.00 
 129    1:20   0.00   78.2    20    5.3   104     6.0    0.00 
 129    1:25   0.00   77.3    20    5.4   105     6.5    0.00 
 129    1:30   0.00   77.1    21    5.4   106     6.0    0.00 
 129    1:35   0.00   77.1    21    4.9   108     6.0    0.00 
 129    1:40   0.00   77.5    21    4.0   100     5.4    0.00 
 129    1:45   0.00   76.6    21    4.7   102     6.0    0.00 
 129    1:50   0.00   76.6    22    5.1   101     6.0    0.00 
 129    1:55   0.00   76.5    22    6.0   106     6.5    0.00 
 129    2:00   0.00   76.3    22    5.9   108     7.1    0.00 
 129    2:05   0.00   76.2    22    5.9   106     7.7    0.00 
 129    2:10   0.00   75.8    22    6.1    99     7.1    0.00 
 129    2:15   0.00   75.5    23    6.3    97     7.1    0.00 
 129    2:20   0.00   75.1    23    6.4    95     7.7    0.00 
 129    2:25   0.00   75.3    23    6.3    98     7.7    0.00 
 129    2:30   0.00   75.5    23    7.4   103     8.8    0.00 
 129    2:35   0.00   75.4    23    7.8   105     8.8    0.00 
 129    2:40   0.00   75.7    23    8.1   104     8.8    0.00 
 129    2:45   0.00   75.6    23    8.6   104     9.3    0.00 
 129    2:50   0.00   75.2    23    8.0   100     9.3    0.00 
 129    2:55   0.00   74.9    24    7.1    94     8.2    0.00 
 129    3:00   0.00   74.9    24    6.7    91     8.2    0.00 
 129    3:05   0.00   75.1    23    6.6    94     7.7    0.00 
 129    3:10   0.00   75.2    23    7.4   100     8.2    0.00 
 129    3:15   0.00   75.2    23    7.5    98     8.2    0.00 
 129    3:20   0.00   75.0    23    7.3    96     8.8    0.00 
 129    3:25   0.00   75.0    24    7.5    98     8.8    0.00 
 129    3:30   0.00   75.1    23    8.3   103     9.9    0.00 
 129    3:35   0.00   74.7    24    8.4   104     9.3    0.00 
 129    3:40   0.00   74.5    24    8.7   107     9.9    0.00 
 129    3:45   0.00   74.3    24    9.2   108    10.5    0.00 
 129    3:50   0.00   73.9    24    9.7   109    11.0    0.00 
 129    3:55   0.00   73.9    24   10.1   110    11.0    0.00 
 129    4:00   0.00   73.8    24   10.1   111    11.6    0.00 
 129    4:05   0.00   73.7    24   10.2   111    11.6    0.00 
 129    4:10   0.00   73.9    24    9.4   109    10.5    0.00 
 129    4:15   0.00   74.0    24    9.5   110    10.5    0.00 
 129    4:20   0.00   74.1    23    9.4   108    10.5    0.00 
 129    4:25   0.00   73.8    23    9.6   107    11.0    0.00 
 129    4:30   0.00   73.7    23    9.3   110    11.0    0.00 
 129    4:35   0.00   73.9    23    9.7   114    11.0    0.00 
 129    4:40   0.00   74.3    23   10.5   110    12.1    0.00 
 129    4:45   0.00   74.5    22   10.4   111    12.1    0.00 
 129    4:50   0.00   74.9    22   10.1   110    11.0    0.00 
 129    4:55   0.00   74.8    22    9.9   111    11.6    0.00 
 129    5:00   0.00   74.8    22   10.1   108    11.6    0.00 
 129    5:05   0.00   74.4    22   10.1   107    11.6    0.00 
 129    5:10   0.00   73.8    22    9.7   106    11.0    0.00 
 129    5:15   0.00   73.0    23    9.5   110    11.0    0.00 
 129    5:20   0.00   72.8    23   10.1   110    11.6    0.00 
 129    5:25   0.00   72.3    23   10.1   112    11.0    0.00 
 129    5:30   0.00   71.7    24    9.5   111    11.0    0.00 
 129    5:35   0.00   71.4    24    9.5   110    11.6    0.00 
 129    5:40   0.00   71.3    24    9.0   108    11.0    0.00 
 129    5:45   0.01   71.3    24    8.9   105    10.5    0.00 
 129    5:50   0.02   71.1    24    8.6   105     9.9    0.00 
 129    5:55   0.02   71.1    24    8.5   109    10.5    0.00 
 129    6:00   0.03   71.1    23    7.7   107     9.3    0.00 
 129    6:05   0.05   70.7    23    5.9    99     8.8    0.00 
 129    6:10   0.06   70.7    23    4.1    87     7.7    0.00 
 129    6:15   0.07   71.5    23    5.1   103     9.3    0.00 
 129    6:20   0.08   71.8    22    2.6    76     6.0    0.00 
 129    6:25   0.09   72.7    22    5.4    82     9.3    0.00 
 129    6:30   0.11   73.7    21    4.9    78     7.1    0.00 
 129    6:35   0.12   74.3    21    6.9    94     8.2    0.00 
 129    6:40   0.14   74.5    21    6.2    97     8.8    0.00 
 129    6:45   0.15   75.0    20    8.2   100    10.5    0.00 
 129    6:50   0.17   75.5    19    8.4   101    10.5    0.00 
 129    6:55   0.18   76.2    19   10.1   102    12.1    0.00 
 129    7:00   0.20   77.2    18   10.1   100    12.1    0.00 
 129    7:05   0.21   78.1    18   10.5   106    12.7    0.00 
 129    7:10   0.23   78.8    17   10.8   108    12.7    0.00 
 129    7:15   0.24   79.4    17   11.1   108    13.8    0.00 
 129    7:20   0.26   79.6    16   11.2   108    13.8    0.00 
 129    7:25   0.28   80.3    16    9.8   110    11.6    0.00 
 129    7:30   0.29   81.1    16    9.8   107    12.1    0.00 
 129    7:35   0.31   81.6    16   10.6   105    12.7    0.00 
 129    7:40   0.33   82.1    15    9.2   110    11.6    0.00 
 129    7:45   0.34   82.5    15    9.7   100    12.7    0.00 
 129    7:50   0.36   83.0    15    8.5    96    10.5    0.00 
 129    7:55   0.38   83.3    15    8.5   104     9.9    0.00 
 129    8:00   0.39   83.8    15    8.8   104    10.5    0.00 
 129    8:05   0.41   84.4    14    8.7   103     9.9    0.00 
 129    8:10   0.42   85.0    14    8.1   108     9.9    0.00 
 129    8:15   0.44   85.7    14    7.6    96     9.3    0.00 
 129    8:20   0.46   86.6    13    6.3    97     7.7    0.00 
 129    8:25   0.47   87.0    13    5.8    98     7.7    0.00 
 129    8:30   0.49   88.0    13    5.1   101     7.7    0.00 
 129    8:35   0.50   88.3    12    3.3   116     6.0    0.00 
 129    8:40   0.52   88.6    12    2.8   131     5.4    0.00 
 129    8:45   0.54   88.8    12    3.5   187     5.4    0.00 
 129    8:50   0.55   88.9    12    3.8   152     6.0    0.00 
 129    8:55   0.56   88.9    12    2.8   182     6.5    0.00 
 129    9:00   0.58   89.2    12    3.8   167     7.1    0.00 
 129    9:05   0.59   89.9    12    4.0   170     6.5    0.00 
 129    9:10   0.61   90.0    11    5.3   199     8.8    0.00 
 129    9:15   0.62   90.3    11    3.8   214     5.4    0.00 
 129    9:20   0.64   90.3    11    3.6   218     7.1    0.00 
 129    9:25   0.65   90.9    11    3.8   221     6.5    0.00 
 129    9:30   0.66   90.7    11    5.3   191     7.1    0.00 
 129    9:35   0.68   91.0    11    4.3   196     6.0    0.00 
 129    9:40   0.69   91.3    11    3.4   176     6.0    0.00 
 129    9:45   0.70   92.2    10    0.9   234     3.8    0.00 
 129    9:50   0.71   93.0    10    1.5   197     7.1    0.00 
 129    9:55   0.73   92.7    10    4.0   218     7.7    0.00 
 129   10:00   0.74   93.1    10    1.3   299     3.8    0.00 
 129   10:05   0.75   94.0    10    3.7   276     7.1    0.00 
 129   10:10   0.76   94.2    10    3.1   311     4.3    0.00 
 129   10:15   0.77   95.4    10    2.0   285     5.4    0.00 
 129   10:20   0.78   95.9    10    2.8   202     7.1    0.00 
 129   10:25   0.79   94.8    10    3.6   208     6.0    0.00 
 129   10:30   0.80   94.7    10    1.1   178     4.3    0.00 
 129   10:35   0.81   95.6    10    1.1    38     6.0    0.00 
 129   10:40   0.82   97.5     9    2.5   248     9.3    0.00 
 129   10:45   0.83   96.2     9    1.6   168     4.3    0.00 
 129   10:50   0.84   97.0     9    6.2   221    13.3    0.00 
 129   10:55   0.84   96.2     9    6.7   199    12.7    0.00 
 129   11:00   0.85   96.7     9    8.2   228    11.6    0.00 
 129   11:05   0.86   96.7     9    3.5   224    11.6    0.00 
 129   11:10   0.87   96.7     9    6.0   175    12.1    0.00 
 129   11:15   0.87   96.9     9    6.0   225    12.1    0.00 
 129   11:20   0.88   97.8     9    6.6   204    12.7    0.00 
 129   11:25   0.89   97.3     9    3.9   179     8.2    0.00 
 129   11:30   0.89   98.1     9    9.2   201    14.9    0.00 
 129   11:35   0.89   98.1     9    7.1   201    12.1    0.00 
 129   11:40   0.90   98.4     9    5.0   186     8.2    0.00 
 129   11:45   0.90   98.3     9    9.5   212    14.4    0.00 
 129   11:50   0.91   98.4     9    7.5   221    11.6    0.00 
 129   11:55   0.91   98.2     9    4.4   237    12.7    0.00 
 129   12:00   0.91   99.8     9    7.6   209    14.4    0.00 
 129   12:05   0.91   99.0     9    9.1   234    13.8    0.00 
 129   12:10   0.92   99.2     9    6.6   218    11.6    0.00 
 129   12:15   0.92   99.1     9    4.7   223    13.8    0.00 
 129   12:20   0.92   99.7     9    9.8   227    16.6    0.00 
 129   12:25   0.92  100.5     9    8.9   199    12.1    0.00 
 129   12:30   0.92  100.3     9    6.5   241     9.9    0.00 

Return to Spot Road graphs page.


Western Regional Climate Center,wrcc@dri.edu